ADDS METAR Data INFO
IDs: Format: Raw Decoded Include TAF

Data at: 0425 UTC 26 May 2018

KHBV 260415Z AUTO 15007KT 10SM CLR 26/20 A2991 RMK AO2 T02610201
KHBV 260355Z AUTO 15007KT 10SM CLR 27/20 A2991 RMK AO2 T02670201
KHBV 260335Z AUTO 13006KT 10SM CLR 27/20 A2991 RMK AO2 T02710201
KHBV 260315Z AUTO 14007KT 10SM CLR 28/20 A2990 RMK AO2 T02750200
KHBV 260255Z AUTO 14009KT 10SM CLR 28/20 A2989 RMK AO2 T02780198
KHBV 260235Z AUTO 13007KT 10SM CLR 28/20 A2989 RMK AO2 T02830196
KHBV 260215Z AUTO 13008KT 10SM CLR 29/19 A2988 RMK AO2 T02880193
KHBV 260155Z AUTO 13011KT 10SM CLR 30/19 A2987 RMK AO2 T02960194
KHBV 260135Z AUTO 13011KT 10SM CLR 30/19 A2987 RMK AO2 T03040194
KHBV 260115Z AUTO 13010G14KT 10SM CLR 32/19 A2987 RMK AO2 T03160191
KHBV 260055Z AUTO 13012KT 10SM CLR 33/19 A2986 RMK AO2 T03260186
KHBV 260035Z AUTO 13009KT 10SM CLR 34/17 A2984 RMK AO2 T03350171
KHBV 260015Z AUTO 13009KT 10SM CLR 35/15 A2984 RMK AO2 T03450153
KHBV 252355Z AUTO 12006KT 10SM CLR 35/15 A2984 RMK AO2 T03470146 10363 20149
KHBV 252335Z AUTO 15006KT 10SM CLR 35/14 A2984 RMK AO2 T03520141
KHBV 252315Z AUTO 12003KT 10SM CLR 35/13 A2985 RMK AO2 T03530133
KHBV 252255Z AUTO 13006KT 10SM CLR 35/13 A2985 RMK AO2 T03530133
KHBV 252235Z AUTO 17004KT 10SM CLR 35/13 A2986 RMK AO2 T03520127
KHBV 252215Z AUTO 00000KT 10SM CLR 35/13 A2986 RMK AO2 T03530130
KHBV 252155Z AUTO 12007KT 080V140 10SM CLR 35/14 A2987 RMK AO2 T03510137
KHBV 252135Z AUTO 16005KT 10SM CLR 35/14 A2988 RMK AO2 T03520135
KHBV 252115Z AUTO 10005KT 10SM CLR 35/15 A2988 RMK AO2 T03480145
KHBV 252055Z AUTO 18003KT 10SM CLR 34/15 A2989 RMK AO2 T03430153
KHBV 252035Z AUTO 14005KT 10SM CLR 34/15 A2990 RMK AO2 T03430146
KHBV 252015Z AUTO 11006KT 10SM CLR 34/15 A2991 RMK AO2 T03410151
KHBV 251955Z AUTO 11004KT 10SM CLR 34/16 A2991 RMK AO2 T03380163
KHBV 251935Z AUTO 19004KT 10SM CLR 34/16 A2992 RMK AO2 T03380157
KHBV 251915Z AUTO 12009KT 10SM CLR 33/17 A2992 RMK AO2 T03330170
KHBV 251855Z AUTO 21005KT 10SM SCT050 33/18 A2993 RMK AO2 T03290182
KHBV 251835Z AUTO 17006KT 10SM SCT047 SCT060 33/19 A2995 RMK AO2 T03270189
KHBV 251815Z AUTO 00000KT 10SM SCT046 32/19 A2995 RMK AO2 T03230187
KHBV 251755Z AUTO 17005KT 10SM SCT046 32/19 A2996 RMK AO2 T03210187 10363 20149
KHBV 251735Z AUTO 12007KT 10SM SCT046 32/19 A2996 RMK AO2 T03180189
KHBV 251715Z AUTO 00000KT 10SM CLR 31/19 A2997 RMK AO2 T03120188
KHBV 251655Z AUTO 15006KT 10SM CLR 31/19 A2998 RMK AO2 T03090193
KHBV 251635Z AUTO 17005KT 10SM CLR 30/20 A2998 RMK AO2 T03020198
KHBV 251615Z AUTO 19006KT 10SM CLR 30/20 A2999 RMK AO2 T02970201
KHBV 251555Z AUTO 19005KT 10SM CLR 29/20 A2999 RMK AO2 T02920202
KHBV 251535Z AUTO 21003KT 10SM CLR 28/21 A2999 RMK AO2 T02830209
KHBV 251515Z AUTO 22003KT 10SM CLR 28/21 A2999 RMK AO2 T02770213
KHBV 251455Z AUTO 21006KT 10SM CLR 27/22 A2999 RMK AO2 T02680217
KHBV 251435Z AUTO 19007KT 10SM SCT012 26/22 A2999 RMK AO2 T02620219
KHBV 251415Z AUTO 19006KT 10SM SCT008 25/22 A2999 RMK AO2 T02520220
KHBV 251355Z AUTO 20005KT 10SM BKN008 24/22 A2999 RMK AO2 T02440223
KHBV 251335Z AUTO 17005KT 10SM BKN006 24/23 A2999 RMK AO2 T02360226
KHBV 251315Z AUTO 18006KT 7SM OVC004 23/23 A2999 RMK AO2 T02320225
KHBV 251255Z AUTO 18005KT 4SM BR OVC001 23/22 A2998 RMK AO2 T02310224
KHBV 251235Z AUTO 17004KT 4SM BR OVC001 23/22 A2998 RMK AO2 T02300223
KHBV 251215Z AUTO 19004KT 3SM BR OVC001 23/22 A2999 RMK AO2 T02290222
KHBV 251155Z AUTO 20004KT 3SM BR OVC001 23/22 A2998 RMK AO2 T02280222 10363 20149
KHBV 251135Z AUTO 20005KT 4SM BR OVC001 23/22 A2997 RMK AO2 T02260220
KHBV 251115Z AUTO 00000KT 1SM BR OVC001 22/22 A2998 RMK AO2 T02240217
KHBV 251055Z AUTO 18004KT 1SM BR OVC001 22/22 A2996 RMK AO2 T02220215
KHBV 251035Z AUTO 18004KT 1 1/4SM BR OVC001 22/22 A2996 RMK AO2 T02230215
KHBV 251015Z AUTO 17003KT 5SM BR OVC001 22/21 A2998 RMK AO2 T02230214
KHBV 250955Z AUTO 00000KT 5SM BR SCT003 SCT014 22/21 A2998 RMK AO2 T02220213
KHBV 250935Z AUTO 00000KT 7SM SCT003 23/21 A2998 RMK AO2 T02250214
KHBV 250915Z AUTO 00000KT 7SM SCT003 BKN011 23/22 A2998 RMK AO2 T02250215
KHBV 250855Z AUTO 16003KT 7SM SCT011 23/22 A2998 RMK AO2 T02250215
KHBV 250835Z AUTO 16003KT 7SM CLR 23/21 A2998 RMK AO2 T02270214
KHBV 250815Z AUTO 15004KT 10SM CLR 23/21 A2998 RMK AO2 T02290214
KHBV 250755Z AUTO 13004KT 10SM CLR 23/22 A2999 RMK AO2 T02310215
KHBV 250735Z AUTO 12003KT 10SM CLR 23/22 A3000 RMK AO2 T02320215
KHBV 250715Z AUTO 13003KT 10SM CLR 23/21 A3000 RMK AO2 T02320214
KHBV 250655Z AUTO 14004KT 10SM CLR 23/22 A3000 RMK AO2 T02330215
KHBV 250635Z AUTO 16004KT 10SM CLR 23/22 A3000 RMK AO2 T02340215
KHBV 250615Z AUTO 15004KT 10SM CLR 24/21 A3001 RMK AO2 T02370214
KHBV 250555Z AUTO 15004KT 10SM CLR 24/21 A3002 RMK AO2 T02390214 10363 20149 403630149
KHBV 250535Z AUTO 15005KT 10SM CLR 24/21 A3002 RMK AO2 T02410213
KHBV 250515Z AUTO 15005KT 10SM CLR 25/21 A3002 RMK AO2 T02450213
KHBV 250455Z AUTO 16006KT 7SM CLR 25/21 A3002 RMK AO2 T02480212
KHBV 250435Z AUTO 15006KT 10SM CLR 25/21 A3003 RMK AO2 T02510210
KHBV 250415Z AUTO 16006KT 10SM CLR 25/21 A3002 RMK AO2 T02530208
KHBV 250355Z AUTO 15006KT 10SM CLR 26/21 A3003 RMK AO2 T02570207
KHBV 250335Z AUTO 14006KT 10SM CLR 26/21 A3003 RMK AO2 T02610207
KHBV 250315Z AUTO 14006KT 10SM CLR 26/21 A3002 RMK AO2 T02640206
KHBV 250255Z AUTO 13008KT 10SM CLR 27/20 A3001 RMK AO2 T02690204
KHBV 250235Z AUTO 13009KT 10SM CLR 27/20 A3000 RMK AO2 T02740201
KHBV 250215Z AUTO 14011KT 10SM CLR 28/20 A2999 RMK AO2 T02780198
KHBV 250155Z AUTO 13010KT 10SM CLR 28/20 A2998 RMK AO2 T02840197
KHBV 250135Z AUTO 13009KT 10SM CLR 29/20 A2997 RMK AO2 T02900197
KHBV 250115Z AUTO 14008KT 10SM CLR 30/20 A2996 RMK AO2 T02960198
KHBV 250055Z AUTO 14009G15KT 10SM CLR 30/20 A2996 RMK AO2 T03030198
KHBV 250035Z AUTO 14013KT 10SM CLR 31/20 A2995 RMK AO2 T03080198
KHBV 250015Z AUTO 14014KT 10SM CLR 32/20 A2995 RMK AO2 T03170200
KHBV 242355Z AUTO 12013G20KT 10SM CLR 33/20 A2995 RMK AO2 T03270198 10363 20149
KHBV 242335Z AUTO 11015KT 10SM CLR 33/19 A2994 RMK AO2 T03340186
KHBV 242315Z AUTO 10012KT 10SM CLR 35/16 A2994 RMK AO2 T03470163
KHBV 242255Z AUTO 11012G15KT 10SM CLR 35/15 A2994 RMK AO2 T03500153
KHBV 242235Z AUTO 11008KT 10SM CLR 35/16 A2994 RMK AO2 T03490156
KHBV 242215Z AUTO 17005KT 10SM CLR 35/15 A2995 RMK AO2 T03480154
KHBV 242155Z AUTO 15005KT 10SM CLR 35/16 A2995 RMK AO2 T03460155
KHBV 242135Z AUTO 24004KT 10SM CLR 35/15 A2996 RMK AO2 T03450152
KHBV 242115Z AUTO 18005KT 10SM CLR 34/15 A2996 RMK AO2 T03420154
KHBV 242055Z AUTO 12003KT 10SM CLR 34/15 A2998 RMK AO2 T03410154
KHBV 242035Z AUTO 14003G15KT 10SM CLR 34/16 A2998 RMK AO2 T03380158
KHBV 242015Z AUTO 12005KT 10SM SCT060 34/16 A2999 RMK AO2 T03350164
KHBV 241955Z AUTO 13004KT 10SM SCT050 33/17 A3000 RMK AO2 T03310167
KHBV 241935Z AUTO 17006KT 10SM SCT050 33/17 A3000 RMK AO2 T03300167
KHBV 241915Z AUTO 00000KT 10SM SCT050 32/17 A3001 RMK AO2 T03230169
KHBV 241855Z AUTO 11005KT 10SM SCT050 32/18 A3001 RMK AO2 T03170175
KHBV 241835Z AUTO 12004KT 10SM SCT048 32/17 A3002 RMK AO2 T03170173
KHBV 241815Z AUTO 14009KT 10SM SCT048 31/18 A3003 RMK AO2 T03130176
KHBV 241755Z AUTO 11006KT 10SM SCT044 SCT050 31/19 A3004 RMK AO2 T03060187 10363 20149
KHBV 241735Z AUTO 00000KT 10SM BKN042 BKN050 30/19 A3004 RMK AO2 T02970190
KHBV 241715Z AUTO 16006KT 10SM SCT038 BKN044 29/20 A3005 RMK AO2 T02920196
KHBV 241655Z AUTO 18004KT 10SM SCT034 BKN044 BKN049 29/20 A3005 RMK AO2 T02880199
KHBV 241635Z AUTO 18004KT 10SM SCT030 BKN036 29/20 A3006 RMK AO2 T02890199